Time;durP1;ratioP1;P1;durP2;ratioP2;P2;SDS_P1;SDS_P2;PMS_P1;PMS_P2;Temp;Humidity;BMP_temperature;BMP_pressure;BME280_temperature;BME280_humidity;BME280_pressure;Samples;Min_cycle;Max_cycle;Signal;HPM_P1;HPM_P2
2023/11/03 00:00:05;;;;;;;8.00;2.97;;;11.90;99.90;;;;;;4952105;28;20426;-68
2023/11/03 00:02:31;;;;;;;4.13;2.43;;;11.90;99.90;;;;;;4966860;28;20548;-68
2023/11/03 00:05:01;;;;;;;2.10;1.90;;;11.80;99.90;;;;;;4951308;29;20430;-68
2023/11/03 00:07:30;;;;;;;3.47;2.03;;;11.80;99.90;;;;;;4952278;28;20197;-68
2023/11/03 00:09:57;;;;;;;4.80;2.67;;;11.70;99.90;;;;;;4951201;28;20824;-67
2023/11/03 00:12:24;;;;;;;4.37;2.40;;;11.60;99.90;;;;;;4953602;28;20426;-68
2023/11/03 00:14:50;;;;;;;4.30;2.63;;;11.60;99.90;;;;;;4950860;28;20469;-67
2023/11/03 00:17:16;;;;;;;6.83;2.40;;;11.60;99.90;;;;;;4951705;28;20435;-68
2023/11/03 00:19:46;;;;;;;4.27;2.07;;;11.70;99.90;;;;;;4953701;28;20747;-68
2023/11/03 00:22:12;;;;;;;5.90;2.03;;;11.60;99.90;;;;;;4951960;28;20490;-68
2023/11/03 00:24:38;;;;;;;3.40;2.00;;;11.70;99.90;;;;;;4953063;28;20427;-68
2023/11/03 00:27:04;;;;;;;6.17;2.20;;;11.60;99.90;;;;;;4952389;28;20460;-73
2023/11/03 00:29:30;;;;;;;2.83;2.13;;;11.50;99.90;;;;;;4952648;28;20468;-68
2023/11/03 00:31:56;;;;;;;3.40;2.60;;;11.50;99.90;;;;;;4951716;28;20440;-68
2023/11/03 00:34:22;;;;;;;2.70;2.20;;;11.50;99.90;;;;;;4937564;29;20451;-69
2023/11/03 00:36:49;;;;;;;2.30;2.10;;;11.60;99.90;;;;;;4951770;28;20265;-67
2023/11/03 00:39:18;;;;;;;3.40;2.70;;;11.60;99.90;;;;;;4955215;28;20512;-68
2023/11/03 00:41:55;;;;;;;3.20;2.40;;;11.60;99.90;;;;;;4956346;28;20429;-61
2023/11/03 00:44:22;;;;;;;4.80;2.30;;;11.50;99.90;;;;;;4955975;29;20515;-68
2023/11/03 00:46:49;;;;;;;6.33;2.40;;;11.50;99.90;;;;;;4954940;28;20428;-61
2023/11/03 00:49:15;;;;;;;10.07;2.30;;;11.50;99.90;;;;;;4956020;29;20483;-68
2023/11/03 00:51:40;;;;;;;3.33;2.60;;;11.50;99.90;;;;;;4956376;29;20917;-67
2023/11/03 00:54:07;;;;;;;3.60;2.27;;;11.50;99.90;;;;;;4954369;28;20749;-68
2023/11/03 00:56:34;;;;;;;3.90;2.10;;;11.50;99.90;;;;;;4954708;28;20188;-68
2023/11/03 00:59:00;;;;;;;3.70;2.30;;;11.40;99.90;;;;;;4955484;28;20423;-67
2023/11/03 01:01:26;;;;;;;2.70;2.57;;;11.40;99.90;;;;;;4956046;29;20484;-68
2023/11/03 01:03:55;;;;;;;5.77;2.47;;;11.40;99.90;;;;;;4954504;28;20180;-67
2023/11/03 01:06:22;;;;;;;2.13;1.97;;;11.50;99.90;;;;;;4954789;29;20174;-68
2023/11/03 01:08:50;;;;;;;2.30;2.20;;;11.50;99.90;;;;;;4953478;28;20461;-67
2023/11/03 01:11:17;;;;;;;2.50;2.30;;;11.40;99.90;;;;;;4954980;28;20445;-68
2023/11/03 01:13:43;;;;;;;3.67;2.60;;;11.40;99.90;;;;;;4955714;29;20497;-68
2023/11/03 01:16:09;;;;;;;3.70;2.50;;;11.40;99.90;;;;;;4954261;29;20830;-67
2023/11/03 01:18:35;;;;;;;2.50;2.37;;;11.40;99.90;;;;;;4956235;28;20614;-68
2023/11/03 01:21:12;;;;;;;3.13;2.80;;;11.40;99.90;;;;;;4954145;28;20672;-68
2023/11/03 01:23:41;;;;;;;5.33;2.63;;;11.40;99.90;;;;;;4955319;28;20778;-65
2023/11/03 01:26:11;;;;;;;3.10;2.47;;;11.50;99.90;;;;;;4950047;29;20522;-68
2023/11/03 01:28:37;;;;;;;3.63;2.47;;;11.50;99.90;;;;;;4955656;29;20489;-69
2023/11/03 01:31:04;;;;;;;2.50;2.10;;;11.50;99.90;;;;;;4954256;29;20439;-68
2023/11/03 01:33:31;;;;;;;2.90;2.53;;;11.60;99.90;;;;;;4954910;28;20472;-68
2023/11/03 01:35:57;;;;;;;2.43;2.23;;;11.60;99.90;;;;;;4954940;28;20433;-68
2023/11/03 01:38:24;;;;;;;3.37;2.60;;;11.60;99.90;;;;;;4954603;28;20434;-68
2023/11/03 01:40:50;;;;;;;3.90;2.83;;;11.50;99.90;;;;;;4949947;29;20434;-61
2023/11/03 01:43:16;;;;;;;4.07;2.60;;;11.50;99.90;;;;;;4955163;29;20420;-64
2023/11/03 01:45:41;;;;;;;3.00;2.30;;;11.50;99.90;;;;;;4955105;28;20476;-68
2023/11/03 01:48:08;;;;;;;2.70;2.50;;;11.50;99.90;;;;;;4953542;28;20728;-68
2023/11/03 01:50:35;;;;;;;3.37;2.80;;;11.40;99.90;;;;;;4954777;28;20177;-68
2023/11/03 01:53:02;;;;;;;2.93;2.73;;;11.50;99.90;;;;;;4954043;29;20493;-68
2023/11/03 01:55:30;;;;;;;4.40;2.70;;;11.50;99.90;;;;;;4954331;28;20588;-68
2023/11/03 01:57:57;;;;;;;2.77;2.50;;;11.50;99.90;;;;;;4954958;28;20484;-68
2023/11/03 02:00:24;;;;;;;3.47;2.60;;;11.60;99.90;;;;;;4954454;29;20436;-68
2023/11/03 02:02:53;;;;;;;2.97;2.70;;;11.60;99.90;;;;;;4954020;28;20853;-68
2023/11/03 02:05:18;;;;;;;3.00;2.60;;;11.70;99.90;;;;;;4954164;28;20429;-68
2023/11/03 02:07:46;;;;;;;3.57;2.30;;;11.70;99.90;;;;;;4954345;29;20510;-68
2023/11/03 02:10:12;;;;;;;2.77;2.57;;;11.70;99.90;;;;;;4952470;29;20196;-68
2023/11/03 02:12:38;;;;;;;3.10;2.83;;;11.70;99.90;;;;;;4954045;29;20513;-68
2023/11/03 02:15:06;;;;;;;2.40;2.30;;;11.70;99.90;;;;;;4952156;29;20243;-68
2023/11/03 02:17:34;;;;;;;2.90;2.70;;;11.80;99.90;;;;;;4953282;29;20541;-68
2023/11/03 02:20:00;;;;;;;5.27;2.30;;;11.80;99.90;;;;;;4953681;28;20427;-68
2023/11/03 02:22:26;;;;;;;3.43;2.77;;;11.90;99.90;;;;;;4954690;29;20910;-68
2023/11/03 02:24:52;;;;;;;2.23;2.10;;;11.80;99.90;;;;;;4951957;29;20431;-67
2023/11/03 02:27:19;;;;;;;2.50;2.40;;;11.90;99.90;;;;;;4952150;29;20207;-65
2023/11/03 02:29:46;;;;;;;2.73;2.53;;;11.80;99.90;;;;;;4953827;28;20214;-68
2023/11/03 02:32:12;;;;;;;2.70;2.60;;;11.90;99.90;;;;;;4954257;28;20418;-68
2023/11/03 02:34:38;;;;;;;3.53;2.40;;;11.90;99.90;;;;;;4953960;28;20474;-65
2023/11/03 02:37:03;;;;;;;2.07;2.00;;;11.90;99.90;;;;;;4952931;29;20552;-68
2023/11/03 02:39:30;;;;;;;2.50;2.30;;;11.80;99.90;;;;;;4955016;29;20180;-68
2023/11/03 02:41:56;;;;;;;3.37;2.23;;;11.80;99.90;;;;;;4953356;28;20485;-68
2023/11/03 02:44:22;;;;;;;2.27;2.17;;;11.80;99.90;;;;;;4953504;28;20493;-68
2023/11/03 02:46:48;;;;;;;2.93;2.27;;;11.80;99.90;;;;;;4954783;28;20173;-68
2023/11/03 02:49:14;;;;;;;2.10;2.00;;;11.90;99.90;;;;;;4952580;29;20976;-68
2023/11/03 02:51:40;;;;;;;2.00;1.90;;;11.80;99.90;;;;;;4953430;28;20189;-68
2023/11/03 02:54:07;;;;;;;2.30;2.20;;;11.80;99.90;;;;;;4953943;29;20184;-68
2023/11/03 02:56:33;;;;;;;2.37;2.10;;;11.80;99.90;;;;;;4954548;28;20229;-69
2023/11/03 02:58:59;;;;;;;2.77;2.57;;;11.80;99.90;;;;;;4953989;28;20439;-67
2023/11/03 03:01:30;;;;;;;2.70;2.20;;;11.80;99.90;;;;;;4952765;28;20754;-68
2023/11/03 03:03:56;;;;;;;3.93;2.37;;;11.80;99.90;;;;;;4953487;28;20179;-62
2023/11/03 03:06:22;;;;;;;2.40;2.20;;;11.80;99.90;;;;;;4953023;28;20486;-68
2023/11/03 03:08:48;;;;;;;2.43;2.23;;;11.80;99.90;;;;;;4953081;28;20667;-68
2023/11/03 03:11:15;;;;;;;2.10;1.90;;;11.80;99.90;;;;;;4952718;28;20428;-68
2023/11/03 03:13:43;;;;;;;2.40;2.20;;;11.70;99.90;;;;;;4953590;28;20431;-68
2023/11/03 03:16:10;;;;;;;2.37;1.93;;;11.80;99.90;;;;;;4951883;28;20530;-68
2023/11/03 03:18:36;;;;;;;5.10;2.90;;;11.50;99.90;;;;;;4953641;28;20408;-68
2023/11/03 03:21:02;;;;;;;2.63;2.43;;;11.50;99.90;;;;;;4952694;28;20517;-68
2023/11/03 03:23:28;;;;;;;2.83;2.67;;;11.60;99.90;;;;;;4953245;29;20456;-68
2023/11/03 03:25:53;;;;;;;2.90;2.70;;;11.50;99.90;;;;;;4953129;28;20932;-62
2023/11/03 03:28:19;;;;;;;2.43;2.27;;;11.50;99.90;;;;;;4953522;29;20295;-68
2023/11/03 03:30:45;;;;;;;2.60;2.40;;;11.60;99.90;;;;;;4953369;28;20190;-68
2023/11/03 03:33:10;;;;;;;2.63;2.50;;;11.60;99.90;;;;;;4952349;29;20228;-68
2023/11/03 03:35:36;;;;;;;2.40;2.30;;;11.70;99.90;;;;;;4952931;29;20181;-68
2023/11/03 03:38:02;;;;;;;2.50;2.30;;;11.70;99.90;;;;;;4953436;29;20173;-68
2023/11/03 03:40:28;;;;;;;2.30;2.10;;;11.60;99.90;;;;;;4952555;29;20189;-68
2023/11/03 03:42:53;;;;;;;2.60;2.50;;;11.50;99.90;;;;;;4951848;29;20220;-68
2023/11/03 03:45:19;;;;;;;2.60;2.50;;;11.50;99.90;;;;;;4953430;29;20543;-68
2023/11/03 03:47:45;;;;;;;2.87;2.70;;;11.50;99.90;;;;;;4952041;29;20720;-68
2023/11/03 03:50:11;;;;;;;3.43;2.53;;;11.50;99.90;;;;;;4950807;29;20585;-68
2023/11/03 03:52:36;;;;;;;2.33;2.30;;;11.60;99.90;;;;;;4953912;29;20169;-68
2023/11/03 03:55:02;;;;;;;2.77;2.57;;;11.50;99.90;;;;;;4952164;29;20676;-68
2023/11/03 03:57:29;;;;;;;2.43;2.33;;;11.60;99.90;;;;;;4953135;29;20191;-68
2023/11/03 03:59:54;;;;;;;2.70;2.60;;;11.80;99.90;;;;;;4954010;28;20427;-68
2023/11/03 04:02:22;;;;;;;3.30;3.00;;;11.60;99.90;;;;;;4951641;28;20464;-68
2023/11/03 04:04:47;;;;;;;3.53;3.13;;;11.60;99.90;;;;;;4953810;29;20930;-68
2023/11/03 04:07:13;;;;;;;3.30;2.47;;;11.60;99.90;;;;;;4951192;29;20214;-68
2023/11/03 04:09:39;;;;;;;2.57;2.37;;;11.60;99.90;;;;;;4952993;29;20200;-68
2023/11/03 04:12:05;;;;;;;2.93;2.57;;;11.60;99.90;;;;;;4953630;28;20184;-68
2023/11/03 04:14:31;;;;;;;3.17;2.80;;;11.50;99.90;;;;;;4954670;29;20475;-67
2023/11/03 04:16:57;;;;;;;2.80;2.60;;;11.50;99.90;;;;;;4942206;29;20432;-61
2023/11/03 04:19:23;;;;;;;2.50;2.40;;;11.60;99.90;;;;;;4957218;28;20182;-68
2023/11/03 04:21:48;;;;;;;3.20;3.00;;;11.80;99.90;;;;;;4956015;29;20913;-68
2023/11/03 04:24:14;;;;;;;2.73;2.53;;;11.70;99.90;;;;;;4955497;29;20194;-68
2023/11/03 04:26:40;;;;;;;3.63;2.90;;;11.70;99.90;;;;;;4956082;29;20212;-67
2023/11/03 04:29:06;;;;;;;2.77;2.67;;;11.70;99.90;;;;;;4956614;28;20682;-68
2023/11/03 04:31:34;;;;;;;3.73;2.40;;;11.80;99.90;;;;;;4956212;28;20189;-68
2023/11/03 04:34:00;;;;;;;2.90;2.70;;;11.70;99.90;;;;;;4955715;28;20480;-62
2023/11/03 04:36:26;;;;;;;4.40;2.70;;;11.80;99.90;;;;;;4955467;28;20426;-68
2023/11/03 04:38:52;;;;;;;2.60;2.50;;;11.80;99.90;;;;;;4957247;29;20440;-68
2023/11/03 04:41:18;;;;;;;2.70;2.60;;;11.80;99.90;;;;;;4955125;28;20512;-68
2023/11/03 04:43:44;;;;;;;2.53;2.40;;;11.70;99.90;;;;;;4955330;28;20914;-68
2023/11/03 04:46:10;;;;;;;2.40;2.20;;;11.80;99.90;;;;;;4956112;28;20432;-68
2023/11/03 04:48:39;;;;;;;2.73;2.60;;;11.70;99.90;;;;;;4955660;28;20216;-68
2023/11/03 04:51:08;;;;;;;2.90;2.70;;;11.70;99.90;;;;;;4955038;29;20433;-68
2023/11/03 04:53:34;;;;;;;3.67;1.70;;;11.70;99.90;;;;;;4957105;28;20407;-68
2023/11/03 04:56:00;;;;;;;1.80;1.50;;;11.70;99.90;;;;;;4956750;28;20890;-67
2023/11/03 04:58:25;;;;;;;4.83;2.60;;;11.60;99.90;;;;;;4956620;28;20187;-68
2023/11/03 05:00:51;;;;;;;3.17;2.87;;;11.70;99.90;;;;;;4955463;28;20423;-68
2023/11/03 05:03:19;;;;;;;4.83;2.10;;;11.80;99.90;;;;;;4936772;29;20631;-68
2023/11/03 05:05:45;;;;;;;2.13;2.00;;;11.80;99.90;;;;;;4950622;29;20534;-68
2023/11/03 05:08:11;;;;;;;4.97;2.90;;;11.80;99.90;;;;;;4954686;28;20484;-68
2023/11/03 05:10:37;;;;;;;2.57;2.47;;;11.80;99.90;;;;;;4956617;29;20422;-68
2023/11/03 05:13:04;;;;;;;5.97;2.30;;;11.80;99.90;;;;;;4955064;28;20259;-67
2023/11/03 05:15:30;;;;;;;3.13;2.83;;;11.90;99.90;;;;;;4953487;29;20472;-68
2023/11/03 05:17:58;;;;;;;4.60;2.70;;;11.60;99.90;;;;;;4955847;28;20512;-68
2023/11/03 05:20:27;;;;;;;3.23;3.03;;;11.70;99.90;;;;;;4955430;29;20458;-68
2023/11/03 05:22:52;;;;;;;5.93;3.67;;;11.70;99.90;;;;;;4955803;28;20422;-67
2023/11/03 05:25:19;;;;;;;3.10;2.80;;;11.60;99.90;;;;;;4953587;28;20763;-67
2023/11/03 05:27:44;;;;;;;3.33;2.70;;;11.60;99.90;;;;;;4956086;28;20456;-67
2023/11/03 05:30:11;;;;;;;3.43;3.13;;;11.50;99.90;;;;;;4953649;29;20433;-67
2023/11/03 05:32:36;;;;;;;4.23;2.97;;;11.60;99.90;;;;;;4955466;28;20188;-68
2023/11/03 05:35:03;;;;;;;2.63;2.53;;;11.70;99.90;;;;;;4954568;28;20561;-61
2023/11/03 05:37:29;;;;;;;3.57;2.03;;;11.40;99.90;;;;;;4953076;28;20193;-67
2023/11/03 05:39:56;;;;;;;4.07;2.97;;;11.70;99.90;;;;;;4955344;28;20551;-67
2023/11/03 05:42:21;;;;;;;3.33;2.17;;;11.70;99.90;;;;;;4954197;28;20412;-67
2023/11/03 05:44:47;;;;;;;4.27;2.37;;;11.70;99.90;;;;;;4953677;29;20791;-72
2023/11/03 05:47:13;;;;;;;3.27;2.97;;;11.70;99.90;;;;;;4954303;29;20311;-72
2023/11/03 05:49:39;;;;;;;4.33;3.73;;;11.70;99.90;;;;;;4953550;28;20200;-70
2023/11/03 05:52:05;;;;;;;4.60;2.30;;;11.90;99.90;;;;;;4953741;28;20189;-78
2023/11/03 05:54:30;;;;;;;5.20;3.77;;;11.70;99.90;;;;;;4954467;28;20625;-75
2023/11/03 05:56:56;;;;;;;5.30;3.07;;;11.70;99.90;;;;;;4955651;28;20432;-78
2023/11/03 05:59:22;;;;;;;5.87;3.30;;;11.60;99.90;;;;;;4953892;29;20198;-78
2023/11/03 06:01:48;;;;;;;3.13;2.93;;;11.60;99.90;;;;;;4953376;29;20180;-78
2023/11/03 06:04:13;;;;;;;4.07;3.70;;;11.70;99.90;;;;;;4954802;29;20185;-79
2023/11/03 06:06:39;;;;;;;3.50;3.20;;;11.70;99.90;;;;;;4937496;29;20181;-77
2023/11/03 06:09:05;;;;;;;3.13;2.80;;;11.70;99.90;;;;;;4954076;28;20494;-65
2023/11/03 06:11:31;;;;;;;5.30;2.73;;;11.50;99.90;;;;;;4954803;28;20272;-79
2023/11/03 06:13:57;;;;;;;3.53;2.60;;;11.60;99.90;;;;;;4954106;28;20527;-78
2023/11/03 06:16:23;;;;;;;3.30;2.90;;;11.60;99.90;;;;;;4953903;29;20747;-77
2023/11/03 06:18:49;;;;;;;4.00;3.27;;;11.60;99.90;;;;;;4955308;28;20650;-79
2023/11/03 06:21:15;;;;;;;5.37;3.43;;;11.60;99.90;;;;;;4948333;29;20185;-79
2023/11/03 06:23:41;;;;;;;4.97;4.57;;;11.60;99.90;;;;;;4952938;29;20429;-77
2023/11/03 06:26:07;;;;;;;3.80;3.50;;;11.70;99.90;;;;;;4951770;28;20603;-66
2023/11/03 06:28:33;;;;;;;4.63;4.23;;;11.70;99.90;;;;;;4948939;29;20504;-80
2023/11/03 06:30:59;;;;;;;8.03;6.93;;;11.70;99.90;;;;;;4957126;28;20274;-80
2023/11/03 06:33:24;;;;;;;4.80;3.90;;;11.70;99.90;;;;;;4953369;29;20598;-79
2023/11/03 06:35:50;;;;;;;3.80;3.50;;;11.70;99.90;;;;;;4950527;28;20270;-79
2023/11/03 06:38:16;;;;;;;4.23;3.40;;;11.80;99.90;;;;;;4953517;29;20464;-78
2023/11/03 06:40:43;;;;;;;4.83;3.10;;;11.80;99.90;;;;;;4953595;28;20559;-79
2023/11/03 06:43:09;;;;;;;4.40;4.00;;;11.80;99.90;;;;;;4953206;28;20496;-65
2023/11/03 06:45:35;;;;;;;4.20;3.83;;;11.80;99.90;;;;;;4954966;28;20410;-79
2023/11/03 06:48:01;;;;;;;3.73;3.43;;;11.70;99.90;;;;;;4952890;29;20493;-77
2023/11/03 06:50:27;;;;;;;7.73;3.97;;;11.70;99.90;;;;;;4953748;29;20194;-80
2023/11/03 06:52:54;;;;;;;3.90;2.73;;;11.80;99.90;;;;;;4952908;28;20440;-80
2023/11/03 06:55:21;;;;;;;3.43;2.80;;;11.60;99.90;;;;;;4949210;29;20415;-76
2023/11/03 06:57:47;;;;;;;5.00;2.83;;;11.60;99.90;;;;;;4944715;29;20538;-76
2023/11/03 07:00:14;;;;;;;2.60;2.47;;;11.60;99.90;;;;;;4953717;28;20840;-74
2023/11/03 07:02:40;;;;;;;4.67;2.53;;;11.60;99.90;;;;;;4954286;28;20466;-74
2023/11/03 07:05:08;;;;;;;3.57;2.83;;;11.70;99.90;;;;;;4969904;28;20429;-61
2023/11/03 07:07:35;;;;;;;5.80;3.83;;;11.50;99.90;;;;;;4954321;28;20499;-75
2023/11/03 07:10:03;;;;;;;2.97;2.87;;;11.70;99.90;;;;;;4953995;28;20508;-76
2023/11/03 07:12:30;;;;;;;3.13;2.30;;;11.80;99.90;;;;;;4952705;28;20430;-74
2023/11/03 07:14:56;;;;;;;3.63;2.47;;;11.80;99.90;;;;;;4953845;28;20474;-75
2023/11/03 07:17:22;;;;;;;3.90;3.60;;;11.90;99.90;;;;;;4952587;28;20440;-74
2023/11/03 07:19:47;;;;;;;4.27;3.03;;;11.90;99.90;;;;;;4953703;29;20467;-75
2023/11/03 07:22:15;;;;;;;3.33;2.57;;;11.90;99.90;;;;;;4952944;29;20208;-75
2023/11/03 07:24:42;;;;;;;3.20;2.43;;;12.00;99.90;;;;;;4953288;28;20519;-74
2023/11/03 07:27:08;;;;;;;4.30;3.27;;;12.00;99.90;;;;;;4952217;28;20521;-64
2023/11/03 07:29:35;;;;;;;3.83;2.90;;;12.00;99.90;;;;;;4948708;28;20460;-75
2023/11/03 07:32:00;;;;;;;4.68;3.40;;;12.00;99.90;;;;;;4944838;28;20464;-76
2023/11/03 07:34:27;;;;;;;6.20;3.33;;;12.10;99.90;;;;;;4945775;28;20222;-77
2023/11/03 07:36:52;;;;;;;6.80;3.80;;;12.10;99.90;;;;;;4954064;28;20411;-76
2023/11/03 07:39:18;;;;;;;5.60;2.77;;;12.10;99.90;;;;;;4964852;28;20795;-74
2023/11/03 07:41:44;;;;;;;5.23;2.10;;;12.10;99.90;;;;;;4953474;29;20453;-72
2023/11/03 07:44:12;;;;;;;6.47;2.90;;;12.20;99.90;;;;;;4934542;29;20882;-63
2023/11/03 07:46:38;;;;;;;3.00;2.20;;;12.10;99.90;;;;;;4941491;29;20537;-72
2023/11/03 07:49:04;;;;;;;4.53;2.73;;;12.00;99.90;;;;;;4943348;29;20455;-73
2023/11/03 07:51:30;;;;;;;5.23;2.93;;;12.10;99.90;;;;;;4956665;28;20192;-70
2023/11/03 07:53:57;;;;;;;2.33;2.10;;;12.10;99.90;;;;;;4957786;29;20426;-75
2023/11/03 07:56:23;;;;;;;5.20;2.20;;;12.20;99.90;;;;;;4962196;28;20440;-74
2023/11/03 07:58:49;;;;;;;3.17;2.30;;;12.20;99.90;;;;;;4954948;28;20516;-71
2023/11/03 08:01:16;;;;;;;3.77;2.33;;;12.30;99.90;;;;;;4956286;28;20429;-70
2023/11/03 08:03:43;;;;;;;7.33;2.47;;;12.40;99.90;;;;;;4954620;28;20434;-69
2023/11/03 08:06:09;;;;;;;2.27;2.07;;;12.50;99.90;;;;;;4953101;28;20424;-72
2023/11/03 08:08:36;;;;;;;2.47;2.27;;;12.50;99.90;;;;;;4954185;28;20467;-73
2023/11/03 08:11:04;;;;;;;2.73;2.30;;;12.60;99.90;;;;;;4956889;29;20424;-72
2023/11/03 08:13:30;;;;;;;6.70;2.63;;;12.50;99.90;;;;;;4956337;28;20429;-72
2023/11/03 08:15:56;;;;;;;4.50;2.70;;;12.50;99.90;;;;;;4956043;29;20571;-73
2023/11/03 08:18:23;;;;;;;4.83;2.40;;;12.50;99.90;;;;;;4956088;28;20555;-73
2023/11/03 08:20:49;;;;;;;5.67;3.13;;;12.40;99.90;;;;;;4955985;29;20424;-66
2023/11/03 08:23:15;;;;;;;4.77;4.33;;;12.50;99.90;;;;;;4955917;29;20427;-61
2023/11/03 08:25:45;;;;;;;4.20;4.00;;;12.60;99.90;;;;;;4952347;29;20424;-64
2023/11/03 08:28:11;;;;;;;5.33;4.00;;;12.60;99.90;;;;;;4949680;29;20468;-66
2023/11/03 08:30:40;;;;;;;4.10;3.00;;;12.60;99.90;;;;;;4954314;29;20512;-66
2023/11/03 08:33:09;;;;;;;5.20;3.57;;;12.70;99.90;;;;;;4949838;28;20234;-65
2023/11/03 08:35:35;;;;;;;4.80;2.80;;;12.60;99.90;;;;;;4950818;29;20436;-65
2023/11/03 08:38:03;;;;;;;5.60;4.20;;;12.50;99.90;;;;;;4955327;28;20442;-65
2023/11/03 08:40:29;;;;;;;3.07;2.87;;;12.60;99.90;;;;;;4955347;29;20949;-72
2023/11/03 08:42:55;;;;;;;6.47;2.87;;;12.70;99.90;;;;;;4954449;28;20442;-67
2023/11/03 08:45:21;;;;;;;3.60;2.37;;;12.80;99.90;;;;;;4949360;28;20997;-75
2023/11/03 08:47:46;;;;;;;3.43;2.77;;;12.70;99.90;;;;;;4948851;28;20207;-71
2023/11/03 08:50:15;;;;;;;4.40;2.77;;;12.70;99.90;;;;;;4953232;29;20202;-68
2023/11/03 08:52:44;;;;;;;2.77;2.57;;;12.70;99.90;;;;;;4956290;28;20175;-73
2023/11/03 08:55:11;;;;;;;4.23;2.40;;;12.60;99.90;;;;;;4957042;28;20410;-73
2023/11/03 08:57:39;;;;;;;3.03;2.80;;;12.50;99.90;;;;;;4955904;28;20565;-75
2023/11/03 09:00:15;;;;;;;134.07;71.67;;;12.40;99.90;;;;;;4956198;28;20416;-77
2023/11/03 09:02:46;;;;;;;7.70;4.27;;;12.20;99.90;;;;;;4958203;28;20423;-62
2023/11/03 09:05:12;;;;;;;7.30;3.90;;;12.10;99.90;;;;;;4951577;28;20957;-62
2023/11/03 09:07:40;;;;;;;6.13;3.70;;;12.20;99.90;;;;;;4954578;28;20560;-62
2023/11/03 09:10:07;;;;;;;4.93;3.30;;;12.50;99.90;;;;;;4958580;28;20428;-63
2023/11/03 09:12:34;;;;;;;7.80;3.13;;;12.80;99.90;;;;;;4954268;28;20446;-64
2023/11/03 09:15:03;;;;;;;3.33;3.03;;;12.60;99.90;;;;;;4953074;28;20487;-68
2023/11/03 09:17:31;;;;;;;6.07;3.57;;;12.80;99.90;;;;;;4951398;28;20435;-68
2023/11/03 09:19:58;;;;;;;4.90;3.80;;;12.90;99.90;;;;;;4950720;28;20437;-66
2023/11/03 09:22:27;;;;;;;6.57;4.63;;;13.20;99.90;;;;;;4954469;28;20442;-63
2023/11/03 09:24:57;;;;;;;5.43;3.77;;;13.30;99.90;;;;;;4955202;29;20442;-63
2023/11/03 09:27:23;;;;;;;3.40;3.03;;;13.40;99.90;;;;;;4951578;28;20465;-62
2023/11/03 09:29:50;;;;;;;3.40;3.10;;;13.10;99.90;;;;;;4952027;28;20517;-62
2023/11/03 09:32:16;;;;;;;4.17;3.77;;;13.00;99.90;;;;;;4951543;28;20468;-60
2023/11/03 09:34:43;;;;;;;23.63;6.63;;;12.90;99.90;;;;;;4950317;28;20517;-63
2023/11/03 09:37:08;;;;;;;256.33;152.10;;;12.80;99.90;;;;;;4948486;28;20434;-63
2023/11/03 09:39:35;;;;;;;9.33;6.10;;;12.90;99.90;;;;;;4943502;29;20436;-63
2023/11/03 09:42:04;;;;;;;7.10;4.00;;;13.00;99.90;;;;;;4954910;28;20178;-62
2023/11/03 09:44:34;;;;;;;4.87;4.47;;;13.20;99.90;;;;;;4952801;28;20432;-75
2023/11/03 09:47:01;;;;;;;4.43;3.17;;;13.40;99.90;;;;;;4945559;28;20513;-66
2023/11/03 09:49:30;;;;;;;5.40;2.80;;;13.30;99.90;;;;;;4946246;29;20528;-72
2023/11/03 09:52:02;;;;;;;7.90;3.53;;;13.20;99.90;;;;;;4956358;28;20522;-72
2023/11/03 09:54:35;;;;;;;4.03;3.17;;;13.20;99.90;;;;;;4956243;28;20443;-72
2023/11/03 09:57:08;;;;;;;3.07;2.83;;;13.00;99.90;;;;;;4952349;29;20424;-73
2023/11/03 09:59:34;;;;;;;3.77;3.10;;;12.90;99.90;;;;;;4954609;29;20498;-73
2023/11/03 10:02:09;;;;;;;8.23;4.07;;;12.90;99.90;;;;;;4952431;28;20582;-73
2023/11/03 10:04:38;;;;;;;4.37;3.43;;;12.70;99.90;;;;;;4954385;29;20511;-72
2023/11/03 10:07:10;;;;;;;4.17;3.07;;;12.60;99.90;;;;;;4954340;29;20962;-73
2023/11/03 10:09:42;;;;;;;5.77;2.80;;;12.50;99.90;;;;;;4953583;28;20415;-72
2023/11/03 10:12:15;;;;;;;2.50;2.10;;;12.50;99.90;;;;;;4958154;28;20426;-73
2023/11/03 10:14:46;;;;;;;3.90;2.60;;;12.50;99.90;;;;;;4954073;28;20624;-73
2023/11/03 10:17:14;;;;;;;3.03;2.13;;;12.60;99.90;;;;;;4952918;28;20441;-72
2023/11/03 10:19:40;;;;;;;4.73;3.20;;;12.50;99.90;;;;;;4953836;28;20438;-73
2023/11/03 10:22:08;;;;;;;2.67;2.47;;;12.60;99.90;;;;;;4955284;28;20419;-73
2023/11/03 10:24:39;;;;;;;6.30;2.40;;;12.80;99.90;;;;;;4953605;28;20530;-72
2023/11/03 10:27:05;;;;;;;5.53;3.77;;;12.90;99.90;;;;;;4954075;28;20450;-72
2023/11/03 10:29:32;;;;;;;3.20;3.00;;;13.20;99.90;;;;;;4954487;28;20749;-72
2023/11/03 10:31:58;;;;;;;8.40;3.70;;;13.40;99.90;;;;;;4952864;28;20815;-72
2023/11/03 10:34:24;;;;;;;4.70;3.00;;;13.50;99.90;;;;;;4953235;29;20488;-71
2023/11/03 10:36:51;;;;;;;5.07;4.57;;;13.80;99.90;;;;;;4954487;28;20420;-72
2023/11/03 10:39:18;;;;;;;7.53;6.17;;;14.10;99.90;;;;;;4953781;29;20425;-72
2023/11/03 10:41:44;;;;;;;16.53;11.90;;;14.40;99.90;;;;;;4952744;29;20426;-71
2023/11/03 10:44:16;;;;;;;4.10;3.53;;;14.50;99.90;;;;;;4954721;28;20449;-73
2023/11/03 10:46:49;;;;;;;6.43;3.33;;;14.80;99.90;;;;;;4947778;28;20481;-67
2023/11/03 10:49:30;;;;;;;4.53;3.13;;;15.10;99.90;;;;;;4949664;29;20474;-70
2023/11/03 10:52:35;;;;;;;2.93;2.73;;;15.30;97.30;;;;;;4953027;29;20761;-73
2023/11/03 10:55:14;;;;;;;4.13;3.83;;;15.50;98.50;;;;;;4911137;29;20440;-74
2023/11/03 10:57:41;;;;;;;4.20;3.80;;;15.80;96.60;;;;;;4948197;29;20428;-73
2023/11/03 11:00:09;;;;;;;4.00;3.53;;;16.00;96.00;;;;;;4954462;28;20904;-74
2023/11/03 11:03:15;;;;;;;6.10;4.13;;;16.10;95.30;;;;;;4952445;28;20516;-73
2023/11/03 11:06:11;;;;;;;5.97;3.50;;;16.30;94.90;;;;;;4949966;28;20459;-74
2023/11/03 11:08:40;;;;;;;4.70;3.70;;;16.30;94.00;;;;;;4937868;29;20551;-65
2023/11/03 11:11:10;;;;;;;4.83;3.60;;;16.50;94.00;;;;;;4958206;28;20423;-68
2023/11/03 11:13:38;;;;;;;4.70;3.67;;;16.70;92.70;;;;;;4955711;28;20416;-67
2023/11/03 11:16:05;;;;;;;6.00;3.90;;;16.80;92.50;;;;;;4953329;28;20560;-67
2023/11/03 11:18:44;;;;;;;3.90;2.90;;;16.90;91.70;;;;;;4952417;28;20493;-69
2023/11/03 11:21:10;;;;;;;4.20;2.77;;;17.00;92.90;;;;;;4946393;28;20431;-68
2023/11/03 11:23:39;;;;;;;4.90;3.50;;;17.10;91.50;;;;;;4947796;28;20451;-68
2023/11/03 11:26:18;;;;;;;4.07;3.67;;;17.20;90.90;;;;;;4952127;29;20475;-68
2023/11/03 11:28:44;;;;;;;3.83;3.37;;;17.30;91.20;;;;;;4948934;29;20531;-70
2023/11/03 11:31:25;;;;;;;6.77;3.40;;;17.40;91.40;;;;;;4952994;28;20828;-72
2023/11/03 11:34:13;;;;;;;6.40;3.80;;;17.40;90.50;;;;;;4954007;28;20504;-71
2023/11/03 11:36:40;;;;;;;3.70;2.80;;;17.40;90.10;;;;;;4948336;29;20772;-71
2023/11/03 11:39:13;;;;;;;7.77;3.70;;;17.20;90.00;;;;;;4954145;28;20417;-72
2023/11/03 11:41:45;;;;;;;6.00;3.83;;;17.10;90.00;;;;;;4942352;28;20457;-71
2023/11/03 11:44:13;;;;;;;5.63;3.53;;;16.90;90.50;;;;;;4935094;29;20412;-70
2023/11/03 11:46:41;;;;;;;5.17;3.97;;;16.90;90.60;;;;;;4948428;29;20443;-71
2023/11/03 11:49:10;;;;;;;5.47;3.97;;;16.80;91.20;;;;;;4951352;29;20933;-73
2023/11/03 11:51:36;;;;;;;4.63;2.97;;;16.80;91.50;;;;;;4952238;28;20417;-72
2023/11/03 11:54:03;;;;;;;3.27;2.67;;;16.70;91.60;;;;;;4952875;28;20428;-71
2023/11/03 11:56:29;;;;;;;5.97;3.37;;;16.70;92.10;;;;;;4950188;29;21147;-71
2023/11/03 11:58:55;;;;;;;8.83;3.50;;;16.70;92.70;;;;;;4952783;28;20432;-70
2023/11/03 12:01:22;;;;;;;4.13;3.20;;;16.60;91.90;;;;;;4953023;28;20278;-73
2023/11/03 12:03:48;;;;;;;5.00;3.13;;;16.60;92.00;;;;;;4950338;28;20424;-73
2023/11/03 12:06:14;;;;;;;4.03;2.97;;;16.50;91.90;;;;;;4953418;28;20424;-73
2023/11/03 12:08:40;;;;;;;7.50;3.23;;;16.40;92.90;;;;;;4949225;28;20464;-72
2023/11/03 12:11:06;;;;;;;4.57;3.50;;;16.30;92.50;;;;;;4953879;29;20771;-72
2023/11/03 12:13:33;;;;;;;5.00;4.50;;;16.30;93.20;;;;;;4953099;28;20192;-72
2023/11/03 12:15:59;;;;;;;35.10;28.03;;;16.30;92.70;;;;;;4953309;28;20266;-73
2023/11/03 12:18:26;;;;;;;4.80;4.27;;;16.10;92.90;;;;;;4953720;28;20471;-63
2023/11/03 12:21:01;;;;;;;8.37;4.40;;;16.10;92.90;;;;;;4953046;28;20900;-71
2023/11/03 12:23:29;;;;;;;7.83;4.40;;;15.90;93.70;;;;;;4949941;28;20438;-64
2023/11/03 12:25:58;;;;;;;4.90;3.43;;;15.90;94.10;;;;;;4953397;28;20932;-72
2023/11/03 12:28:35;;;;;;;6.40;4.30;;;15.80;94.50;;;;;;4952686;29;20473;-72
2023/11/03 12:31:04;;;;;;;10.90;5.00;;;15.80;94.20;;;;;;4949738;29;20843;-74
2023/11/03 12:33:31;;;;;;;5.77;4.27;;;15.70;94.10;;;;;;4953735;28;20428;-63
2023/11/03 12:35:57;;;;;;;4.57;3.97;;;15.70;94.20;;;;;;4957193;28;20405;-73
2023/11/03 12:38:23;;;;;;;4.33;3.80;;;15.60;94.20;;;;;;4957149;28;20422;-74
2023/11/03 12:40:50;;;;;;;4.50;4.03;;;15.50;94.40;;;;;;4956090;29;20483;-65
2023/11/03 12:43:17;;;;;;;5.90;5.20;;;15.40;95.90;;;;;;4956153;28;20417;-63
2023/11/03 12:45:47;;;;;;;4.73;4.07;;;15.50;96.50;;;;;;4955514;28;20429;-65